Time,TemperatureF,DewpointF,PressureIn,WindDirection,WindDirectionDegrees,WindSpeedMPH,WindSpeedGustMPH,Humidity,HourlyPrecipIn,Conditions,Clouds,dailyrainin,SoftwareType,DateUTC
2015-01-30 00:01:00,57.6,47.8,29.85,West,270,1.2,1.4,70,0.00,CLR,,0.00,WeatherDisplay:10.37,2015-01-30 06:01:00,
2015-01-30 00:06:00,57.6,48.2,29.85,NNW,338,0.9,1.4,71,0.00,CLR,,0.00,WeatherDisplay:10.37,2015-01-30 06:06:00,
2015-01-30 00:11:00,57.6,49.0,29.85,WSW,248,2.2,3.5,73,0.00,CLR,,0.00,WeatherDisplay:10.37,2015-01-30 06:11:00,
2015-01-30 00:16:00,57.6,49.0,29.85,North,0,2.0,2.3,73,0.00,CLR,,0.00,WeatherDisplay:10.37,2015-01-30 06:16:00,
2015-01-30 00:21:00,57.6,49.0,29.85,West,270,1.2,2.3,73,0.00,CLR,,0.00,WeatherDisplay:10.37,2015-01-30 06:21:00,
2015-01-30 00:26:00,57.4,48.8,29.85,West,270,1.4,1.4,73,0.00,CLR,,0.00,WeatherDisplay:10.37,2015-01-30 06:26:00,
2015-01-30 00:31:00,57.6,49.3,29.85,WNW,292,2.0,2.3,74,0.00,CLR,,0.00,WeatherDisplay:10.37,2015-01-30 06:31:00,
2015-01-30 00:36:00,57.6,50.0,29.85,NW,315,0.9,1.2,76,0.00,CLR,,0.00,WeatherDisplay:10.37,2015-01-30 06:36:00,
2015-01-30 00:41:00,57.4,49.2,29.85,West,270,1.2,1.6,74,0.00,CLR,,0.00,WeatherDisplay:10.37,2015-01-30 06:41:00,
2015-01-30 00:46:00,57.6,49.7,29.85,WNW,292,1.6,2.4,75,0.00,CLR,,0.00,WeatherDisplay:10.37,2015-01-30 06:46:00,
2015-01-30 00:51:00,57.4,49.5,29.85,West,270,1.2,2.6,75,0.00,CLR,,0.00,WeatherDisplay:10.37,2015-01-30 06:51:00,
2015-01-30 00:56:00,57.7,50.6,29.85,WNW,292,3.3,6.9,77,0.00,CLR,,0.00,WeatherDisplay:10.37,2015-01-30 06:56:00,
2015-01-30 01:01:00,57.6,50.0,29.85,West,270,2.2,3.6,76,0.00,CLR,,0.00,WeatherDisplay:10.37,2015-01-30 07:01:00,
2015-01-30 01:06:00,57.6,50.0,29.85,West,270,3.3,4.6,76,0.00,CLR,,0.00,WeatherDisplay:10.37,2015-01-30 07:06:00,
2015-01-30 01:11:00,57.6,49.7,29.88,WNW,292,1.4,2.9,75,0.00,CLR,,0.00,WeatherDisplay:10.37,2015-01-30 07:11:00,
2015-01-30 01:16:00,57.4,48.8,29.88,NNW,338,2.6,3.5,73,0.00,CLR,,0.00,WeatherDisplay:10.37,2015-01-30 07:16:00,
2015-01-30 01:21:00,57.4,48.8,29.88,NNW,338,2.4,2.9,73,0.00,CLR,,0.00,WeatherDisplay:10.37,2015-01-30 07:21:00,
2015-01-30 01:27:00,57.2,48.3,29.85,WNW,292,4.7,5.9,72,0.00,CLR,,0.00,WeatherDisplay:10.37,2015-01-30 07:27:00,
2015-01-30 01:32:00,57.2,47.9,29.85,North,0,4.0,4.6,71,0.00,CLR,,0.00,WeatherDisplay:10.37,2015-01-30 07:32:00,
2015-01-30 01:37:00,57.2,47.1,29.88,NW,315,4.7,6.0,69,0.00,CLR,,0.00,WeatherDisplay:10.37,2015-01-30 07:37:00,
2015-01-30 01:42:00,57.0,45.4,29.88,North,0,5.4,8.1,65,0.00,CLR,,0.00,WeatherDisplay:10.37,2015-01-30 07:42:00,
2015-01-30 01:47:00,57.2,43.0,29.88,North,0,6.4,12.7,59,0.00,CLR,,0.00,WeatherDisplay:10.37,2015-01-30 07:47:00,
2015-01-30 01:52:00,57.4,40.9,29.88,North,0,6.7,9.2,54,0.00,CLR,,0.00,WeatherDisplay:10.37,2015-01-30 07:52:00,
2015-01-30 01:57:00,57.6,39.0,29.88,North,0,6.9,10.4,50,0.00,CLR,,0.00,WeatherDisplay:10.37,2015-01-30 07:57:00,
2015-01-30 02:02:00,57.6,38.0,29.88,North,0,6.9,8.1,48,0.00,CLR,,0.00,WeatherDisplay:10.37,2015-01-30 08:02:00,
2015-01-30 02:07:00,57.6,37.5,29.88,NNW,338,6.2,10.4,47,0.00,CLR,,0.00,WeatherDisplay:10.37,2015-01-30 08:07:00,
2015-01-30 02:12:00,57.6,37.5,29.88,NNW,338,4.7,9.2,47,0.00,CLR,,0.00,WeatherDisplay:10.37,2015-01-30 08:12:00,
2015-01-30 02:17:00,57.4,37.3,29.88,North,0,6.0,9.8,47,0.00,CLR,,0.00,WeatherDisplay:10.37,2015-01-30 08:17:00,
2015-01-30 02:23:00,57.2,37.1,29.88,North,0,6.2,8.1,47,0.00,CLR,,0.00,WeatherDisplay:10.37,2015-01-30 08:23:00,
2015-01-30 02:28:00,57.0,37.0,29.88,North,0,6.7,10.2,47,0.00,CLR,,0.00,WeatherDisplay:10.37,2015-01-30 08:28:00,
2015-01-30 02:33:00,56.8,36.3,29.88,North,0,4.9,8.1,46,0.00,CLR,,0.00,WeatherDisplay:10.37,2015-01-30 08:33:00,
2015-01-30 02:38:00,56.7,36.1,29.88,NNW,338,6.7,8.1,46,0.00,CLR,,0.00,WeatherDisplay:10.37,2015-01-30 08:38:00,
2015-01-30 02:43:00,56.7,35.5,29.88,NW,315,4.5,6.4,45,0.00,CLR,,0.00,WeatherDisplay:10.37,2015-01-30 08:43:00,
2015-01-30 02:48:00,56.5,35.9,29.88,North,0,6.9,9.2,46,0.00,CLR,,0.00,WeatherDisplay:10.37,2015-01-30 08:48:00,
2015-01-30 02:53:00,56.3,34.6,29.88,NNW,338,9.8,10.4,44,0.00,CLR,,0.00,WeatherDisplay:10.37,2015-01-30 08:53:00,
2015-01-30 02:58:00,56.1,34.5,29.88,NNW,338,6.2,8.1,44,0.00,CLR,,0.00,WeatherDisplay:10.37,2015-01-30 08:58:00,
2015-01-30 03:03:00,55.9,33.7,29.88,North,0,6.7,8.1,43,0.00,CLR,,0.00,WeatherDisplay:10.37,2015-01-30 09:03:00,
2015-01-30 03:08:00,55.8,32.4,29.91,North,0,8.5,11.5,41,0.00,CLR,,0.00,WeatherDisplay:10.37,2015-01-30 09:08:00,
2015-01-30 03:13:00,55.6,31.6,29.91,North,0,4.7,8.1,40,0.00,CLR,,0.00,WeatherDisplay:10.37,2015-01-30 09:13:00,
2015-01-30 03:18:00,55.4,31.5,29.91,North,0,6.0,9.7,40,0.00,CLR,,0.00,WeatherDisplay:10.37,2015-01-30 09:18:00,
2015-01-30 03:23:00,55.0,31.1,29.88,North,0,4.0,5.8,40,0.00,CLR,,0.00,WeatherDisplay:10.37,2015-01-30 09:23:00,
2015-01-30 03:28:00,55.0,30.5,29.88,North,0,6.2,8.1,39,0.00,CLR,,0.00,WeatherDisplay:10.37,2015-01-30 09:28:00,
2015-01-30 03:33:00,54.7,30.2,29.88,North,0,4.9,5.8,39,0.00,CLR,,0.00,WeatherDisplay:10.37,2015-01-30 09:33:00,
2015-01-30 03:38:00,54.7,30.2,29.88,North,0,4.0,5.9,39,0.00,CLR,,0.00,WeatherDisplay:10.37,2015-01-30 09:38:00,
2015-01-30 03:43:00,54.5,30.0,29.88,North,0,4.7,8.1,39,0.00,CLR,,0.00,WeatherDisplay:10.37,2015-01-30 09:43:00,
2015-01-30 03:48:00,54.3,29.9,29.88,North,0,3.6,7.6,39,0.00,CLR,,0.00,WeatherDisplay:10.37,2015-01-30 09:48:00,
2015-01-30 03:53:00,54.3,30.5,29.91,North,0,3.6,5.8,40,0.00,CLR,,0.00,WeatherDisplay:10.37,2015-01-30 09:53:00,
2015-01-30 03:58:00,54.0,29.5,29.91,NE,45,7.4,10.4,39,0.00,CLR,,0.00,WeatherDisplay:10.37,2015-01-30 09:58:00,
2015-01-30 04:03:00,53.4,28.4,29.91,North,0,7.1,11.5,38,0.00,CLR,,0.00,WeatherDisplay:10.37,2015-01-30 10:03:00,
2015-01-30 04:08:00,52.5,27.0,29.91,NNE,22,6.0,13.0,37,0.00,CLR,,0.00,WeatherDisplay:10.37,2015-01-30 10:08:00,
2015-01-30 04:13:00,52.2,26.6,29.91,North,0,6.9,9.2,37,0.00,CLR,,0.00,WeatherDisplay:10.37,2015-01-30 10:13:00,
2015-01-30 04:18:00,51.8,26.3,29.91,NNE,22,6.9,10.4,37,0.00,CLR,,0.00,WeatherDisplay:10.37,2015-01-30 10:18:00,
2015-01-30 04:23:00,51.4,26.0,29.91,North,0,8.7,13.5,37,0.00,CLR,,0.00,WeatherDisplay:10.37,2015-01-30 10:23:00,
2015-01-30 04:28:00,51.1,25.7,29.91,North,0,4.9,10.4,37,0.00,CLR,,0.00,WeatherDisplay:10.37,2015-01-30 10:28:00,
2015-01-30 04:33:00,50.9,25.5,29.91,NE,45,5.6,8.1,37,0.00,CLR,,0.00,WeatherDisplay:10.37,2015-01-30 10:33:00,
2015-01-30 04:38:00,50.4,25.0,29.91,North,0,9.0,10.7,37,0.00,CLR,,0.00,WeatherDisplay:10.37,2015-01-30 10:38:00,
2015-01-30 04:43:00,49.8,24.6,29.91,NNE,22,8.7,10.7,37,0.00,CLR,,0.00,WeatherDisplay:10.37,2015-01-30 10:43:00,
2015-01-30 04:48:00,49.5,24.2,29.91,North,0,10.0,10.5,37,0.00,CLR,,0.00,WeatherDisplay:10.37,2015-01-30 10:48:00,
2015-01-30 04:53:00,48.9,23.1,29.91,North,0,5.9,13.0,36,0.00,CLR,,0.00,WeatherDisplay:10.37,2015-01-30 10:53:00,
2015-01-30 04:58:00,48.7,22.9,29.91,NNE,22,7.4,11.4,36,0.00,CLR,,0.00,WeatherDisplay:10.37,2015-01-30 10:58:00,
2015-01-30 05:03:00,48.4,22.0,29.91,NNE,22,6.9,10.4,35,0.00,CLR,,0.00,WeatherDisplay:10.37,2015-01-30 11:03:00,
2015-01-30 05:08:00,48.0,22.3,29.94,North,0,4.5,8.5,36,0.00,CLR,,0.00,WeatherDisplay:10.37,2015-01-30 11:08:00,
2015-01-30 05:13:00,47.7,22.0,29.94,North,0,6.4,8.1,36,0.00,CLR,,0.00,WeatherDisplay:10.37,2015-01-30 11:13:00,
2015-01-30 05:18:00,47.3,21.0,29.94,NNE,22,4.9,10.4,35,0.00,CLR,,0.00,WeatherDisplay:10.37,2015-01-30 11:18:00,
2015-01-30 05:23:00,47.3,20.3,29.94,NE,45,10.5,12.7,34,0.00,CLR,,0.00,WeatherDisplay:10.37,2015-01-30 11:23:00,
2015-01-30 05:28:00,47.1,20.2,29.94,North,0,9.4,12.7,34,0.00,CLR,,0.00,WeatherDisplay:10.37,2015-01-30 11:28:00,
2015-01-30 05:33:00,46.9,20.0,29.94,NNE,22,8.7,13.8,34,0.00,CLR,,0.00,WeatherDisplay:10.37,2015-01-30 11:33:00,
2015-01-30 05:38:00,46.8,20.5,29.94,NNE,22,8.1,10.4,35,0.00,CLR,,0.00,WeatherDisplay:10.37,2015-01-30 11:38:00,
2015-01-30 05:43:00,46.6,21.0,29.94,North,0,8.1,15.0,36,0.00,CLR,,0.00,WeatherDisplay:10.37,2015-01-30 11:43:00,
2015-01-30 05:48:00,46.4,20.9,29.94,North,0,5.9,9.2,36,0.00,CLR,,0.00,WeatherDisplay:10.37,2015-01-30 11:48:00,
2015-01-30 05:53:00,46.2,21.3,29.94,North,0,5.9,8.1,37,0.00,CLR,,0.00,WeatherDisplay:10.37,2015-01-30 11:53:00,
2015-01-30 05:58:00,46.2,21.3,29.94,NNE,22,10.0,11.5,37,0.00,CLR,,0.00,WeatherDisplay:10.37,2015-01-30 11:58:00,
2015-01-30 06:03:00,46.0,21.2,29.94,North,0,6.7,8.1,37,0.00,CLR,,0.00,WeatherDisplay:10.37,2015-01-30 12:03:00,
2015-01-30 06:08:00,45.9,21.0,29.94,North,0,2.9,7.8,37,0.00,CLR,,0.00,WeatherDisplay:10.37,2015-01-30 12:08:00,